createdAt,value
2018-01-05T00:00:52.445Z,989.90
2018-01-05T00:02:19.478Z,989.88
2018-01-05T00:03:46.627Z,989.88
2018-01-05T00:05:13.944Z,989.90
2018-01-05T00:06:40.654Z,989.88
2018-01-05T00:08:07.970Z,989.84
2018-01-05T00:09:35.137Z,989.79
2018-01-05T00:11:02.384Z,989.76
2018-01-05T00:12:29.700Z,989.74
2018-01-05T00:13:57.124Z,989.73
2018-01-05T00:15:24.116Z,989.74
2018-01-05T00:16:50.935Z,989.73
2018-01-05T00:18:18.154Z,989.73
2018-01-05T00:19:45.350Z,989.72
2018-01-05T00:21:12.281Z,989.73
2018-01-05T00:22:39.620Z,989.71
2018-01-05T00:24:06.905Z,989.71
2018-01-05T00:25:34.332Z,989.67
2018-01-05T00:27:01.535Z,989.66
2018-01-05T00:28:28.757Z,989.64
2018-01-05T00:29:56.062Z,989.53
2018-01-05T00:31:23.297Z,989.51
2018-01-05T00:32:50.338Z,989.51
2018-01-05T00:34:17.413Z,989.55
2018-01-05T00:35:44.314Z,989.57
2018-01-05T00:37:11.796Z,989.57
2018-01-05T00:38:39.113Z,989.62
2018-01-05T00:40:06.449Z,989.60
2018-01-05T00:41:33.817Z,989.60
2018-01-05T00:43:00.830Z,989.66
2018-01-05T00:44:27.607Z,989.66
2018-01-05T00:45:54.805Z,989.65
2018-01-05T00:47:22.050Z,989.64
2018-01-05T00:48:48.947Z,989.67
2018-01-05T00:50:16.005Z,989.69
2018-01-05T00:51:43.413Z,989.71
2018-01-05T00:53:10.214Z,989.71
2018-01-05T00:54:37.627Z,989.71
2018-01-05T00:56:04.689Z,989.72
2018-01-05T00:57:32.129Z,989.75
2018-01-05T00:58:59.294Z,989.79
2018-01-05T01:00:26.692Z,989.77
2018-01-05T01:01:53.886Z,989.82
2018-01-05T01:03:20.906Z,989.78
2018-01-05T01:04:47.894Z,989.84
2018-01-05T01:06:14.894Z,989.82
2018-01-05T01:07:41.838Z,989.78
2018-01-05T01:09:09.228Z,989.82
2018-01-05T01:10:36.513Z,989.77
2018-01-05T01:12:03.443Z,989.81
2018-01-05T01:13:30.779Z,989.78
2018-01-05T01:14:58.063Z,989.84
2018-01-05T01:16:25.177Z,989.76
2018-01-05T01:17:51.804Z,989.77
2018-01-05T01:19:18.966Z,989.78
2018-01-05T01:20:45.875Z,989.81
2018-01-05T01:22:13.249Z,989.78
2018-01-05T01:23:40.491Z,989.78
2018-01-05T01:25:07.915Z,989.77
2018-01-05T01:26:34.937Z,989.75
2018-01-05T01:28:02.063Z,989.75
2018-01-05T01:29:29.182Z,989.74
2018-01-05T01:30:56.018Z,989.70
2018-01-05T01:32:23.276Z,989.68
2018-01-05T01:33:49.996Z,989.65
2018-01-05T01:35:17.196Z,989.66
2018-01-05T01:36:43.982Z,989.67
2018-01-05T01:38:11.346Z,989.68
2018-01-05T01:39:41.479Z,989.64
2018-01-05T01:41:05.799Z,989.69
2018-01-05T01:42:33.216Z,989.70
2018-01-05T01:44:00.524Z,989.73
2018-01-05T01:45:27.841Z,989.72
2018-01-05T01:46:55.128Z,989.72
2018-01-05T01:48:22.441Z,989.67
2018-01-05T01:49:49.688Z,989.67
2018-01-05T01:51:16.971Z,989.73
2018-01-05T01:52:44.002Z,989.79
2018-01-05T01:54:11.317Z,989.79
2018-01-05T01:55:38.784Z,989.75
2018-01-05T01:57:05.890Z,989.81
2018-01-05T01:58:32.962Z,989.81
2018-01-05T02:00:00.239Z,989.85
2018-01-05T02:01:27.641Z,989.82
2018-01-05T02:02:54.786Z,989.86
2018-01-05T02:04:22.008Z,989.91
2018-01-05T02:05:49.342Z,989.94
2018-01-05T02:07:16.656Z,989.97
2018-01-05T02:08:43.701Z,989.97
2018-01-05T02:10:10.925Z,989.98
2018-01-05T02:11:38.244Z,989.98
2018-01-05T02:13:05.703Z,989.98
2018-01-05T02:14:32.917Z,990.10
2018-01-05T02:16:00.036Z,990.22
2018-01-05T02:17:27.503Z,990.22
2018-01-05T02:18:54.849Z,990.22
2018-01-05T02:20:22.207Z,990.35
2018-01-05T02:21:49.504Z,990.31
2018-01-05T02:23:16.756Z,990.37
2018-01-05T02:24:43.869Z,990.40
2018-01-05T02:26:11.119Z,990.34
2018-01-05T02:27:38.287Z,990.36
2018-01-05T02:29:05.445Z,990.39
2018-01-05T02:30:32.634Z,990.40
2018-01-05T02:32:00.055Z,990.38
2018-01-05T02:33:27.433Z,990.40
2018-01-05T02:34:54.607Z,990.43
2018-01-05T02:36:22.022Z,990.45
2018-01-05T02:37:49.034Z,990.46
2018-01-05T02:39:15.900Z,990.50
2018-01-05T02:40:43.046Z,990.45
2018-01-05T02:42:10.218Z,990.51
2018-01-05T02:43:37.676Z,990.53
2018-01-05T02:45:05.029Z,990.53
2018-01-05T02:46:32.174Z,990.53
2018-01-05T02:47:59.476Z,990.53
2018-01-05T02:49:26.636Z,990.57
2018-01-05T02:50:53.936Z,990.60
2018-01-05T02:52:21.114Z,990.59
2018-01-05T02:53:48.225Z,990.60
2018-01-05T02:55:15.206Z,990.63
2018-01-05T02:56:42.614Z,990.69
2018-01-05T02:58:09.776Z,990.70
2018-01-05T02:59:37.047Z,990.75
2018-01-05T03:01:04.455Z,990.74
2018-01-05T03:02:31.841Z,990.79
2018-01-05T03:03:58.922Z,990.81
2018-01-05T03:05:26.397Z,990.83
2018-01-05T03:06:53.444Z,990.81
2018-01-05T03:08:20.844Z,990.87
2018-01-05T03:09:48.026Z,990.90
2018-01-05T03:11:15.158Z,990.90
2018-01-05T03:12:42.327Z,990.95
2018-01-05T03:14:09.535Z,990.97
2018-01-05T03:15:36.588Z,990.97
2018-01-05T03:17:03.976Z,990.98
2018-01-05T03:18:31.237Z,991.03
2018-01-05T03:19:58.453Z,991.01
2018-01-05T03:21:25.952Z,990.95
2018-01-05T03:22:53.285Z,990.99
2018-01-05T03:24:20.530Z,991.02
2018-01-05T03:25:47.773Z,991.07
2018-01-05T03:27:14.677Z,991.07
2018-01-05T03:28:41.843Z,991.04
2018-01-05T03:30:09.322Z,991.04
2018-01-05T03:31:36.668Z,991.11
2018-01-05T03:33:04.034Z,991.09
2018-01-05T03:34:31.394Z,991.10
2018-01-05T03:35:58.796Z,991.12
2018-01-05T03:37:25.997Z,991.12
2018-01-05T03:38:53.110Z,991.14
2018-01-05T03:40:20.538Z,991.12
2018-01-05T03:41:47.411Z,991.14
2018-01-05T03:43:14.653Z,991.14
2018-01-05T03:44:42.187Z,991.16
2018-01-05T03:46:09.545Z,991.13
2018-01-05T03:47:36.955Z,991.14
2018-01-05T03:49:04.262Z,991.19
2018-01-05T03:50:31.549Z,991.22
2018-01-05T03:51:58.935Z,991.25
2018-01-05T03:53:26.128Z,991.27
2018-01-05T03:54:53.399Z,991.29
2018-01-05T03:56:20.631Z,991.29
2018-01-05T03:57:47.911Z,991.32
2018-01-05T03:59:14.920Z,991.32
2018-01-05T04:00:41.926Z,991.35
2018-01-05T04:02:09.369Z,991.38
2018-01-05T04:03:36.560Z,991.38
2018-01-05T04:05:03.639Z,991.39
2018-01-05T04:06:30.915Z,991.40
2018-01-05T04:07:57.908Z,991.39
2018-01-05T04:09:25.172Z,991.41
2018-01-05T04:10:52.169Z,991.44
2018-01-05T04:12:19.482Z,991.38
2018-01-05T04:13:46.528Z,991.39
2018-01-05T04:15:13.861Z,991.46
2018-01-05T04:16:41.132Z,991.45
2018-01-05T04:18:08.397Z,991.45
2018-01-05T04:19:35.617Z,991.44
2018-01-05T04:21:02.217Z,991.48
2018-01-05T04:22:29.515Z,991.49
2018-01-05T04:23:56.876Z,991.50
2018-01-05T04:25:24.126Z,991.51
2018-01-05T04:26:51.421Z,991.55
2018-01-05T04:28:18.734Z,991.52
2018-01-05T04:29:45.971Z,991.56
2018-01-05T04:31:13.217Z,991.59
2018-01-05T04:32:40.571Z,991.57
2018-01-05T04:34:07.880Z,991.61
2018-01-05T04:35:35.173Z,991.65
2018-01-05T04:37:02.626Z,991.66
2018-01-05T04:38:29.885Z,991.67
2018-01-05T04:39:56.973Z,991.70
2018-01-05T04:41:24.310Z,991.61
2018-01-05T04:42:51.387Z,991.67
2018-01-05T04:44:18.532Z,991.63
2018-01-05T04:45:45.531Z,991.62
2018-01-05T04:47:12.968Z,991.68
2018-01-05T04:48:40.222Z,991.66
2018-01-05T04:50:07.592Z,991.73
2018-01-05T04:51:34.684Z,991.72
2018-01-05T04:53:01.978Z,991.70
2018-01-05T04:54:29.057Z,991.74
2018-01-05T04:55:56.519Z,991.76
2018-01-05T04:57:23.884Z,991.74
2018-01-05T04:58:51.245Z,991.77
2018-01-05T05:00:18.393Z,991.80
2018-01-05T05:01:45.848Z,991.76
2018-01-05T05:03:13.005Z,991.79
2018-01-05T05:04:40.276Z,991.81
2018-01-05T05:06:07.597Z,991.83
2018-01-05T05:07:34.900Z,991.84
2018-01-05T05:09:02.070Z,991.85
2018-01-05T05:10:29.417Z,991.85
2018-01-05T05:11:56.647Z,991.82
2018-01-05T05:13:23.778Z,991.87
2018-01-05T05:14:51.028Z,991.85
2018-01-05T05:16:18.123Z,991.88
2018-01-05T05:17:45.140Z,991.94
2018-01-05T05:19:13.016Z,991.96
2018-01-05T05:20:39.176Z,991.94
2018-01-05T05:22:06.580Z,991.99
2018-01-05T05:23:33.960Z,991.95
2018-01-05T05:25:01.516Z,992.00
2018-01-05T05:26:28.722Z,992.01
2018-01-05T05:27:55.985Z,992.03
2018-01-05T05:29:22.834Z,992.01
2018-01-05T05:30:50.228Z,991.96
2018-01-05T05:32:17.245Z,992.05
2018-01-05T05:33:44.227Z,992.05
2018-01-05T05:35:11.455Z,991.98
2018-01-05T05:36:38.799Z,992.04
2018-01-05T05:38:06.202Z,992.06
2018-01-05T05:39:33.486Z,992.17
2018-01-05T05:41:00.819Z,992.18
2018-01-05T05:42:28.169Z,992.21
2018-01-05T05:43:55.569Z,992.20
2018-01-05T05:45:22.760Z,992.19
2018-01-05T05:46:49.901Z,992.24
2018-01-05T05:48:16.968Z,992.24
2018-01-05T05:49:44.441Z,992.26
2018-01-05T05:51:11.855Z,992.28
2018-01-05T05:52:39.165Z,992.29
2018-01-05T05:54:06.379Z,992.30
2018-01-05T05:55:33.618Z,992.30
2018-01-05T05:57:01.002Z,992.31
2018-01-05T05:58:28.398Z,992.35
2018-01-05T05:59:55.539Z,992.35
2018-01-05T06:01:22.839Z,992.34
2018-01-05T06:02:49.921Z,992.39
2018-01-05T06:04:16.979Z,992.32
2018-01-05T06:05:44.438Z,992.36
2018-01-05T06:07:11.589Z,992.39
2018-01-05T06:08:38.503Z,992.36
2018-01-05T06:10:05.794Z,992.42
2018-01-05T06:11:33.153Z,992.44
2018-01-05T06:13:00.430Z,992.44
2018-01-05T06:14:27.906Z,992.47
2018-01-05T06:15:55.243Z,992.47
2018-01-05T06:17:22.378Z,992.38
2018-01-05T06:18:49.591Z,992.47
2018-01-05T06:20:16.603Z,992.49
2018-01-05T06:21:43.941Z,992.53
2018-01-05T06:23:10.688Z,992.51
2018-01-05T06:24:37.887Z,992.55
2018-01-05T06:26:04.554Z,992.60
2018-01-05T06:27:31.609Z,992.61
2018-01-05T06:28:59.033Z,992.58
2018-01-05T06:30:26.059Z,992.64
2018-01-05T06:31:53.254Z,992.66
2018-01-05T06:33:20.520Z,992.64
2018-01-05T06:34:47.274Z,992.73
2018-01-05T06:36:14.040Z,992.73
2018-01-05T06:37:41.244Z,992.76
2018-01-05T06:39:08.532Z,992.73
2018-01-05T06:40:35.527Z,992.75
2018-01-05T06:42:02.780Z,992.76
2018-01-05T06:43:30.268Z,992.79
2018-01-05T06:44:57.234Z,992.76
2018-01-05T06:46:23.950Z,992.80
2018-01-05T06:47:51.148Z,992.81
2018-01-05T06:49:18.563Z,992.86
2018-01-05T06:50:45.799Z,992.87
2018-01-05T06:52:13.176Z,992.92
2018-01-05T06:53:40.236Z,992.91
2018-01-05T06:55:07.210Z,992.92
2018-01-05T06:56:34.193Z,992.91
2018-01-05T06:58:00.963Z,992.88
2018-01-05T06:59:28.292Z,992.90
2018-01-05T07:00:56.615Z,992.96
2018-01-05T07:02:22.632Z,992.93
2018-01-05T07:03:49.181Z,992.95
2018-01-05T07:05:16.522Z,992.87
2018-01-05T07:06:43.912Z,992.92
2018-01-05T07:08:11.230Z,992.94
2018-01-05T07:09:38.516Z,992.90
2018-01-05T07:11:05.844Z,992.90
2018-01-05T07:12:33.116Z,992.94
2018-01-05T07:14:00.476Z,992.95
2018-01-05T07:15:27.881Z,992.99
2018-01-05T07:16:55.074Z,993.01
2018-01-05T07:18:22.073Z,993.01
2018-01-05T07:19:48.896Z,993.01
2018-01-05T07:21:16.231Z,992.96
2018-01-05T07:22:43.011Z,992.98
2018-01-05T07:24:10.274Z,992.94
2018-01-05T07:25:37.602Z,992.89
2018-01-05T07:27:05.147Z,993.00
2018-01-05T07:28:32.262Z,993.02
2018-01-05T07:29:59.441Z,993.04
2018-01-05T07:31:26.761Z,993.09
2018-01-05T07:32:54.039Z,993.11
2018-01-05T07:34:21.361Z,993.12
2018-01-05T07:35:48.554Z,993.13
2018-01-05T07:37:15.696Z,993.08
2018-01-05T07:38:42.528Z,993.11
2018-01-05T07:40:09.759Z,993.19
2018-01-05T07:41:37.193Z,993.21
2018-01-05T07:43:04.407Z,993.28
2018-01-05T07:44:31.811Z,993.26
2018-01-05T07:45:59.167Z,993.27
2018-01-05T07:47:25.872Z,993.22
2018-01-05T07:48:53.289Z,993.28
2018-01-05T07:50:20.250Z,993.29
2018-01-05T07:51:47.593Z,993.31
2018-01-05T07:53:14.626Z,993.31
2018-01-05T07:54:41.506Z,993.30
2018-01-05T07:56:08.833Z,993.25
2018-01-05T07:57:35.638Z,993.30
2018-01-05T07:59:02.903Z,993.29
2018-01-05T08:00:30.433Z,993.30
2018-01-05T08:01:57.666Z,993.29
2018-01-05T08:03:24.823Z,993.30
2018-01-05T08:04:51.677Z,993.28
2018-01-05T08:06:18.789Z,993.29
2018-01-05T08:07:45.996Z,993.25
2018-01-05T08:09:13.218Z,993.27
2018-01-05T08:10:40.553Z,993.30
2018-01-05T08:12:07.815Z,993.30
2018-01-05T08:13:35.133Z,993.26
2018-01-05T08:15:02.526Z,993.30
2018-01-05T08:16:29.987Z,993.28
2018-01-05T08:17:57.178Z,993.30
2018-01-05T08:19:24.245Z,993.35
2018-01-05T08:20:51.467Z,993.33
2018-01-05T08:22:18.670Z,993.32
2018-01-05T08:23:45.554Z,993.31
2018-01-05T08:25:12.791Z,993.35
2018-01-05T08:26:40.190Z,993.31
2018-01-05T08:28:07.430Z,993.24
2018-01-05T08:29:34.430Z,993.28
2018-01-05T08:31:01.702Z,993.27
2018-01-05T08:32:28.541Z,993.30
2018-01-05T08:33:55.934Z,993.29
2018-01-05T08:35:23.282Z,993.35
2018-01-05T08:36:50.468Z,993.31
2018-01-05T08:38:17.778Z,993.32
2018-01-05T08:39:44.972Z,993.40
2018-01-05T08:41:12.144Z,993.38
2018-01-05T08:42:39.473Z,993.33
2018-01-05T08:44:06.639Z,993.40
2018-01-05T08:45:34.016Z,993.35
2018-01-05T08:47:01.309Z,993.44
2018-01-05T08:48:28.580Z,993.42
2018-01-05T08:49:55.798Z,993.45
2018-01-05T08:51:23.229Z,993.44
2018-01-05T08:52:50.375Z,993.39
2018-01-05T08:54:17.355Z,993.41
2018-01-05T08:55:44.406Z,993.41
2018-01-05T08:57:11.738Z,993.42
2018-01-05T08:58:39.107Z,993.44
2018-01-05T09:00:06.394Z,993.49
2018-01-05T09:01:33.717Z,993.50
2018-01-05T09:03:00.954Z,993.47
2018-01-05T09:04:28.170Z,993.49
2018-01-05T09:05:55.354Z,993.51
2018-01-05T09:07:22.629Z,993.51
2018-01-05T09:08:49.959Z,993.55
2018-01-05T09:10:17.255Z,993.56
2018-01-05T09:11:44.499Z,993.51
2018-01-05T09:13:11.827Z,993.56
2018-01-05T09:14:39.167Z,993.58
2018-01-05T09:16:06.669Z,993.64
2018-01-05T09:17:33.898Z,993.66
2018-01-05T09:19:01.264Z,993.65
2018-01-05T09:20:28.559Z,993.68
2018-01-05T09:21:55.894Z,993.71
2018-01-05T09:23:22.710Z,993.72
2018-01-05T09:24:49.695Z,993.74
2018-01-05T09:26:16.935Z,993.77
2018-01-05T09:27:44.409Z,993.77
2018-01-05T09:29:11.579Z,993.82
2018-01-05T09:30:38.765Z,993.81
2018-01-05T09:32:06.100Z,993.85
2018-01-05T09:33:33.034Z,993.85
2018-01-05T09:35:00.378Z,993.86
2018-01-05T09:36:27.788Z,993.82
2018-01-05T09:37:55.005Z,993.88
2018-01-05T09:39:21.874Z,993.86
2018-01-05T09:40:49.015Z,993.88
2018-01-05T09:42:16.236Z,993.95
2018-01-05T09:43:43.286Z,993.99
2018-01-05T09:45:10.155Z,994.01
2018-01-05T09:46:37.038Z,993.99
2018-01-05T09:48:04.342Z,993.99
2018-01-05T09:49:31.442Z,994.04
2018-01-05T09:50:58.752Z,994.02
2018-01-05T09:52:26.091Z,994.01
2018-01-05T09:53:53.357Z,994.08
2018-01-05T09:55:20.616Z,994.09
2018-01-05T09:56:47.954Z,994.09
2018-01-05T09:58:14.923Z,994.13
2018-01-05T09:59:42.046Z,994.10
2018-01-05T10:01:09.160Z,994.13
2018-01-05T10:02:35.756Z,994.13
2018-01-05T10:04:02.900Z,994.14
2018-01-05T10:05:29.743Z,994.16
2018-01-05T10:06:56.657Z,994.17
2018-01-05T10:08:23.810Z,994.13
2018-01-05T10:09:50.848Z,994.13
2018-01-05T10:11:17.950Z,994.08
2018-01-05T10:12:45.078Z,994.10
2018-01-05T10:14:12.460Z,994.09
2018-01-05T10:15:39.580Z,994.08
2018-01-05T10:17:06.751Z,994.07
2018-01-05T10:18:33.896Z,994.09
2018-01-05T10:20:01.268Z,994.11
2018-01-05T10:21:28.607Z,994.12
2018-01-05T10:22:55.402Z,994.15
2018-01-05T10:24:22.741Z,994.10
2018-01-05T10:25:50.062Z,994.05
2018-01-05T10:27:17.393Z,994.07
2018-01-05T10:28:44.195Z,994.02
2018-01-05T10:30:11.515Z,994.04
2018-01-05T10:31:38.854Z,994.03
2018-01-05T10:33:06.218Z,994.07
2018-01-05T10:34:33.336Z,994.08
2018-01-05T10:36:00.533Z,994.14
2018-01-05T10:37:27.707Z,994.18
2018-01-05T10:38:55.039Z,994.16
2018-01-05T10:40:22.360Z,994.21
2018-01-05T10:41:49.636Z,994.23
2018-01-05T10:43:16.729Z,994.21
2018-01-05T10:44:44.096Z,994.28
2018-01-05T10:46:11.428Z,994.29
2018-01-05T10:47:38.490Z,994.34
2018-01-05T10:49:05.950Z,994.34
2018-01-05T10:50:33.351Z,994.37
2018-01-05T10:52:00.516Z,994.38
2018-01-05T10:53:27.939Z,994.41
2018-01-05T10:54:55.198Z,994.40
2018-01-05T10:56:22.404Z,994.43
2018-01-05T10:57:49.657Z,994.41
2018-01-05T10:59:16.667Z,994.45
2018-01-05T11:00:43.892Z,994.50
2018-01-05T11:02:11.258Z,994.50
2018-01-05T11:03:38.727Z,994.52
2018-01-05T11:05:05.731Z,994.51
2018-01-05T11:06:32.921Z,994.50
2018-01-05T11:07:59.826Z,994.56
2018-01-05T11:09:27.139Z,994.60
2018-01-05T11:10:54.358Z,994.62
2018-01-05T11:12:21.687Z,994.64
2018-01-05T11:13:48.247Z,994.66
2018-01-05T11:15:15.471Z,994.67
2018-01-05T11:16:42.624Z,994.62
2018-01-05T11:18:10.080Z,994.65
2018-01-05T11:19:37.367Z,994.69
2018-01-05T11:21:04.778Z,994.71
2018-01-05T11:22:32.104Z,994.71
2018-01-05T11:23:59.398Z,994.74
2018-01-05T11:25:26.049Z,994.70
2018-01-05T11:26:53.230Z,994.73
2018-01-05T11:28:20.532Z,994.74
2018-01-05T11:29:47.754Z,994.81
2018-01-05T11:31:14.849Z,994.85
2018-01-05T11:32:42.282Z,994.91
2018-01-05T11:34:09.517Z,994.91
2018-01-05T11:35:36.888Z,994.92
2018-01-05T11:37:04.215Z,994.96
2018-01-05T11:38:31.583Z,994.96
2018-01-05T11:39:58.932Z,994.97
2018-01-05T11:41:26.072Z,994.96
2018-01-05T11:42:52.682Z,994.96
2018-01-05T11:44:19.870Z,994.92
2018-01-05T11:45:47.305Z,994.94
2018-01-05T11:47:14.276Z,994.99
2018-01-05T11:48:41.647Z,994.99
2018-01-05T11:50:08.869Z,995.04
2018-01-05T11:51:36.216Z,995.06
2018-01-05T11:53:03.274Z,995.15
2018-01-05T11:54:30.556Z,995.21
2018-01-05T11:55:57.617Z,995.21
2018-01-05T11:57:24.926Z,995.22
2018-01-05T11:58:52.173Z,995.22
2018-01-05T12:00:19.301Z,995.27
2018-01-05T12:01:46.592Z,995.28
2018-01-05T12:03:13.480Z,995.32
2018-01-05T12:04:40.819Z,995.37
2018-01-05T12:06:08.082Z,995.38
2018-01-05T12:07:35.476Z,995.43
2018-01-05T12:09:02.595Z,995.50
2018-01-05T12:10:29.281Z,995.59
2018-01-05T12:11:56.653Z,995.61
2018-01-05T12:13:23.911Z,995.66
2018-01-05T12:14:51.264Z,995.73
2018-01-05T12:16:18.551Z,995.78
2018-01-05T12:17:45.621Z,995.84
2018-01-05T12:19:12.878Z,995.93
2018-01-05T12:20:39.834Z,996.02
2018-01-05T12:22:07.007Z,995.98
2018-01-05T12:23:34.391Z,996.05
2018-01-05T12:25:01.195Z,996.10
2018-01-05T12:26:28.334Z,996.16
2018-01-05T12:27:55.616Z,996.20
2018-01-05T12:29:23.030Z,996.27
2018-01-05T12:30:50.156Z,996.26
2018-01-05T12:32:17.392Z,996.29
2018-01-05T12:33:44.186Z,996.31
2018-01-05T12:35:11.468Z,996.33
2018-01-05T12:36:38.415Z,996.35
2018-01-05T12:38:05.793Z,996.45
2018-01-05T12:39:33.145Z,996.51
2018-01-05T12:41:00.245Z,996.57
2018-01-05T12:42:27.147Z,996.63
2018-01-05T12:43:54.303Z,996.71
2018-01-05T12:45:21.385Z,996.75
2018-01-05T12:46:48.624Z,996.83
2018-01-05T12:48:15.507Z,996.90
2018-01-05T12:49:42.796Z,996.92
2018-01-05T12:51:10.168Z,996.93
2018-01-05T12:52:37.883Z,996.97
2018-01-05T12:54:05.110Z,996.97
2018-01-05T12:55:32.217Z,997.01
2018-01-05T12:56:59.648Z,997.07
2018-01-05T12:58:26.789Z,997.10
2018-01-05T12:59:54.068Z,997.14
2018-01-05T13:01:21.220Z,997.20
2018-01-05T13:02:48.378Z,997.26
2018-01-05T13:04:15.438Z,997.36
2018-01-05T13:05:42.640Z,997.40
2018-01-05T13:07:09.794Z,997.42
2018-01-05T13:08:36.750Z,997.41
2018-01-05T13:10:03.982Z,997.45
2018-01-05T13:11:31.445Z,997.46
2018-01-05T13:12:58.772Z,997.55
2018-01-05T13:14:26.087Z,997.59
2018-01-05T13:15:53.481Z,997.65
2018-01-05T13:17:20.814Z,997.72
2018-01-05T13:18:48.132Z,997.78
2018-01-05T13:20:14.957Z,997.81
2018-01-05T13:21:42.333Z,997.83
2018-01-05T13:23:09.679Z,997.83
2018-01-05T13:24:36.980Z,997.85
2018-01-05T13:26:04.272Z,997.89
2018-01-05T13:27:31.119Z,997.93
2018-01-05T13:28:58.488Z,997.92
2018-01-05T13:30:25.741Z,997.91
2018-01-05T13:31:53.150Z,997.93
2018-01-05T13:33:20.509Z,998.00
2018-01-05T13:34:47.638Z,998.05
2018-01-05T13:36:14.501Z,998.07
2018-01-05T13:37:41.820Z,998.08
2018-01-05T13:39:09.150Z,998.03
2018-01-05T13:40:36.480Z,998.03
2018-01-05T13:42:03.759Z,998.06
2018-01-05T13:43:30.918Z,998.15
2018-01-05T13:44:57.921Z,998.20
2018-01-05T13:46:25.285Z,998.28
2018-01-05T13:47:52.555Z,998.30
2018-01-05T13:49:19.652Z,998.37
2018-01-05T13:50:46.872Z,998.40
2018-01-05T13:52:14.101Z,998.50
2018-01-05T13:53:41.387Z,998.50
2018-01-05T13:55:08.657Z,998.57
2018-01-05T13:56:35.894Z,998.60
2018-01-05T13:58:03.208Z,998.61
2018-01-05T13:59:30.461Z,998.61
2018-01-05T14:00:57.812Z,998.62
2018-01-05T14:02:24.906Z,998.61
2018-01-05T14:03:52.060Z,998.66
2018-01-05T14:05:19.269Z,998.71
2018-01-05T14:06:46.430Z,998.76
2018-01-05T14:08:13.795Z,998.78
2018-01-05T14:09:41.026Z,998.76
2018-01-05T14:11:08.362Z,998.76
2018-01-05T14:12:35.690Z,998.81
2018-01-05T14:14:02.779Z,998.85
2018-01-05T14:15:30.114Z,998.87
2018-01-05T14:16:57.255Z,998.85
2018-01-05T14:18:24.600Z,998.90
2018-01-05T14:19:51.815Z,998.93
2018-01-05T14:21:19.010Z,998.96
2018-01-05T14:22:46.358Z,998.99
2018-01-05T14:24:13.346Z,999.05
2018-01-05T14:25:40.837Z,999.11
2018-01-05T14:27:07.985Z,999.11
2018-01-05T14:28:35.229Z,999.16
2018-01-05T14:30:02.588Z,999.16
2018-01-05T14:31:29.730Z,999.15
2018-01-05T14:32:57.157Z,999.16
2018-01-05T14:34:24.592Z,999.18
2018-01-05T14:35:51.436Z,999.25
2018-01-05T14:37:18.796Z,999.22
2018-01-05T14:38:45.766Z,999.25
2018-01-05T14:40:13.341Z,999.25
2018-01-05T14:41:40.557Z,999.31
2018-01-05T14:43:07.911Z,999.31
2018-01-05T14:44:35.241Z,999.34
2018-01-05T14:46:02.293Z,999.37
2018-01-05T14:47:29.566Z,999.39
2018-01-05T14:48:56.856Z,999.41
2018-01-05T14:50:24.055Z,999.36
2018-01-05T14:51:51.250Z,999.33
2018-01-05T14:53:18.494Z,999.35
2018-01-05T14:54:45.606Z,999.37
2018-01-05T14:56:12.747Z,999.37
2018-01-05T14:57:39.970Z,999.38
2018-01-05T14:59:07.356Z,999.37
2018-01-05T15:00:34.519Z,999.38
2018-01-05T15:02:01.693Z,999.38
2018-01-05T15:03:28.892Z,999.43
2018-01-05T15:04:56.015Z,999.49
2018-01-05T15:06:23.423Z,999.52
2018-01-05T15:07:50.660Z,999.55
2018-01-05T15:09:17.746Z,999.54
2018-01-05T15:10:44.912Z,999.52
2018-01-05T15:12:12.108Z,999.56
2018-01-05T15:13:39.497Z,999.60
2018-01-05T15:15:06.725Z,999.65
2018-01-05T15:16:34.096Z,999.68
2018-01-05T15:18:01.363Z,999.70
2018-01-05T15:19:28.442Z,999.74
2018-01-05T15:20:55.825Z,999.75
2018-01-05T15:22:23.071Z,999.76
2018-01-05T15:23:50.280Z,999.80
2018-01-05T15:25:17.556Z,999.79
2018-01-05T15:26:44.499Z,999.83
2018-01-05T15:28:11.672Z,999.86
2018-01-05T15:29:38.952Z,999.87
2018-01-05T15:31:06.250Z,999.92
2018-01-05T15:32:33.133Z,999.96
2018-01-05T15:34:00.384Z,999.94
2018-01-05T15:35:27.423Z,999.90
2018-01-05T15:36:54.702Z,999.92
2018-01-05T15:38:21.911Z,999.96
2018-01-05T15:39:49.125Z,999.99
2018-01-05T15:41:16.287Z,1000.01
2018-01-05T15:42:43.431Z,1000.01
2018-01-05T15:44:10.668Z,1000.03
2018-01-05T15:45:37.792Z,1000.07
2018-01-05T15:47:04.768Z,1000.07
2018-01-05T15:48:31.780Z,1000.07
2018-01-05T15:49:58.792Z,1000.10
2018-01-05T15:51:26.160Z,1000.14
2018-01-05T15:52:53.474Z,1000.17
2018-01-05T15:54:20.631Z,1000.19
2018-01-05T15:55:47.652Z,1000.22
2018-01-05T15:57:14.812Z,1000.25
2018-01-05T15:58:42.195Z,1000.25
2018-01-05T16:00:09.465Z,1000.24
2018-01-05T16:01:36.817Z,1000.25
2018-01-05T16:03:04.090Z,1000.27
2018-01-05T16:04:31.331Z,1000.31
2018-01-05T16:05:58.438Z,1000.35
2018-01-05T16:07:25.535Z,1000.38
2018-01-05T16:08:52.961Z,1000.43
2018-01-05T16:10:20.209Z,1000.47
2018-01-05T16:11:47.254Z,1000.52
2018-01-05T16:13:14.317Z,1000.53
2018-01-05T16:14:41.654Z,1000.57
2018-01-05T16:16:08.933Z,1000.58
2018-01-05T16:17:35.839Z,1000.59
2018-01-05T16:19:03.251Z,1000.59
2018-01-05T16:20:30.686Z,1000.55
2018-01-05T16:21:57.950Z,1000.57
2018-01-05T16:23:25.264Z,1000.60
2018-01-05T16:24:52.424Z,1000.59
2018-01-05T16:26:19.690Z,1000.58
2018-01-05T16:27:46.686Z,1000.57
2018-01-05T16:29:13.590Z,1000.58
2018-01-05T16:30:40.882Z,1000.61
2018-01-05T16:32:08.332Z,1000.61
2018-01-05T16:33:35.540Z,1000.61
2018-01-05T16:35:02.666Z,1000.60
2018-01-05T16:36:29.933Z,1000.62
2018-01-05T16:37:56.932Z,1000.62
2018-01-05T16:39:24.118Z,1000.67
2018-01-05T16:40:51.403Z,1000.68
2018-01-05T16:42:18.682Z,1000.67
2018-01-05T16:43:45.606Z,1000.69
2018-01-05T16:45:12.994Z,1000.69
2018-01-05T16:46:40.310Z,1000.69
2018-01-05T16:48:07.626Z,1000.73
2018-01-05T16:49:34.905Z,1000.76
2018-01-05T16:51:01.865Z,1000.84
2018-01-05T16:52:28.855Z,1000.83
2018-01-05T16:53:56.185Z,1000.84
2018-01-05T16:55:23.553Z,1000.81
2018-01-05T16:56:50.821Z,1000.84
2018-01-05T16:58:18.119Z,1000.88
2018-01-05T16:59:45.508Z,1000.91
2018-01-05T17:01:12.650Z,1000.92
2018-01-05T17:02:39.979Z,1000.99
2018-01-05T17:04:07.355Z,1001.00
2018-01-05T17:05:34.240Z,1001.01
2018-01-05T17:07:01.570Z,1001.02
2018-01-05T17:08:28.916Z,1001.00
2018-01-05T17:09:56.280Z,1001.04
2018-01-05T17:11:23.557Z,1001.06
2018-01-05T17:12:50.670Z,1001.07
2018-01-05T17:14:17.869Z,1001.05
2018-01-05T17:15:44.925Z,1001.08
2018-01-05T17:17:12.079Z,1001.09
2018-01-05T17:18:39.369Z,1001.09
2018-01-05T17:20:06.617Z,1001.09
2018-01-05T17:21:33.987Z,1001.10
2018-01-05T17:23:01.241Z,1001.12
2018-01-05T17:24:28.559Z,1001.16
2018-01-05T17:25:55.789Z,1001.18
2018-01-05T17:27:23.057Z,1001.20
2018-01-05T17:28:50.462Z,1001.21
2018-01-05T17:30:17.643Z,1001.23
2018-01-05T17:31:44.936Z,1001.20
2018-01-05T17:33:11.805Z,1001.20
2018-01-05T17:34:38.788Z,1001.24
2018-01-05T17:36:05.797Z,1001.24
2018-01-05T17:37:33.148Z,1001.29
2018-01-05T17:39:00.216Z,1001.32
2018-01-05T17:40:27.585Z,1001.34
2018-01-05T17:41:54.814Z,1001.37
2018-01-05T17:43:22.162Z,1001.38
2018-01-05T17:44:49.252Z,1001.39
2018-01-05T17:46:16.009Z,1001.46
2018-01-05T17:47:43.486Z,1001.48
2018-01-05T17:49:10.665Z,1001.47
2018-01-05T17:50:37.974Z,1001.47
2018-01-05T17:52:05.353Z,1001.50
2018-01-05T17:53:32.648Z,1001.53
2018-01-05T17:54:59.933Z,1001.56
2018-01-05T17:56:27.359Z,1001.57
2018-01-05T17:57:54.685Z,1001.60
2018-01-05T17:59:22.040Z,1001.62
2018-01-05T18:00:49.320Z,1001.64
2018-01-05T18:02:16.490Z,1001.63
2018-01-05T18:03:43.828Z,1001.63